sensor_id;sensor_type;location;lat;lon;timestamp;pressure;altitude;pressure_sealevel;temperature;humidity
71948;BME280;63257;55.082;38.772;2023-03-24T00:00:19;98914.19;;;8.06;61.56
71948;BME280;63257;55.082;38.772;2023-03-24T00:02:47;98905.81;;;7.99;61.37
71948;BME280;63257;55.082;38.772;2023-03-24T00:05:19;98904.69;;;8.03;60.84
71948;BME280;63257;55.082;38.772;2023-03-24T00:07:46;98911.66;;;8.04;61.24
71948;BME280;63257;55.082;38.772;2023-03-24T00:10:16;98890.31;;;7.94;61.50
71948;BME280;63257;55.082;38.772;2023-03-24T00:12:44;98894.66;;;7.95;61.52
71948;BME280;63257;55.082;38.772;2023-03-24T00:15:13;98898.78;;;8.00;61.93
71948;BME280;63257;55.082;38.772;2023-03-24T00:17:39;98890.56;;;7.90;62.24
71948;BME280;63257;55.082;38.772;2023-03-24T00:20:08;98885.31;;;7.90;62.33
71948;BME280;63257;55.082;38.772;2023-03-24T00:22:47;98885.59;;;7.85;62.35
71948;BME280;63257;55.082;38.772;2023-03-24T00:25:19;98884.78;;;7.85;62.63
71948;BME280;63257;55.082;38.772;2023-03-24T00:27:49;98864.59;;;7.85;62.41
71948;BME280;63257;55.082;38.772;2023-03-24T00:30:17;98879.91;;;7.93;62.33
71948;BME280;63257;55.082;38.772;2023-03-24T00:32:44;98868.53;;;7.92;62.55
71948;BME280;63257;55.082;38.772;2023-03-24T00:35:12;98859.72;;;7.93;62.76
71948;BME280;63257;55.082;38.772;2023-03-24T00:37:39;98860.56;;;7.94;62.75
71948;BME280;63257;55.082;38.772;2023-03-24T00:40:08;98802.91;;;7.62;62.89
71948;BME280;63257;55.082;38.772;2023-03-24T00:42:41;98852.78;;;7.92;62.52
71948;BME280;63257;55.082;38.772;2023-03-24T00:45:13;98847.31;;;7.81;63.35
71948;BME280;63257;55.082;38.772;2023-03-24T00:47:40;98836.06;;;7.79;63.60
71948;BME280;63257;55.082;38.772;2023-03-24T00:50:10;98846.00;;;7.88;63.31
71948;BME280;63257;55.082;38.772;2023-03-24T00:52:36;98832.31;;;7.83;63.64
71948;BME280;63257;55.082;38.772;2023-03-24T00:55:11;98826.03;;;7.86;63.16
71948;BME280;63257;55.082;38.772;2023-03-24T00:57:44;98790.72;;;7.61;63.94
71948;BME280;63257;55.082;38.772;2023-03-24T01:00:22;98801.16;;;7.77;63.52
71948;BME280;63257;55.082;38.772;2023-03-24T01:02:51;98817.69;;;7.93;63.93
71948;BME280;63257;55.082;38.772;2023-03-24T01:05:29;98817.00;;;7.90;64.08
71948;BME280;63257;55.082;38.772;2023-03-24T01:07:59;98795.81;;;7.78;64.00
71948;BME280;63257;55.082;38.772;2023-03-24T01:10:29;98812.81;;;7.87;63.80
71948;BME280;63257;55.082;38.772;2023-03-24T01:12:58;98810.94;;;7.89;64.13
71948;BME280;63257;55.082;38.772;2023-03-24T01:15:30;98813.09;;;7.97;63.99
71948;BME280;63257;55.082;38.772;2023-03-24T01:17:58;98801.72;;;7.96;64.14
71948;BME280;63257;55.082;38.772;2023-03-24T01:20:27;98803.72;;;7.93;63.95
71948;BME280;63257;55.082;38.772;2023-03-24T01:22:58;98790.84;;;7.88;64.49
71948;BME280;63257;55.082;38.772;2023-03-24T01:25:25;98769.63;;;7.77;64.59
71948;BME280;63257;55.082;38.772;2023-03-24T01:27:52;98788.88;;;7.92;64.01
71948;BME280;63257;55.082;38.772;2023-03-24T01:30:25;98789.56;;;7.95;64.56
71948;BME280;63257;55.082;38.772;2023-03-24T01:32:51;98791.06;;;8.00;64.23
71948;BME280;63257;55.082;38.772;2023-03-24T01:35:19;98775.19;;;8.01;63.75
71948;BME280;63257;55.082;38.772;2023-03-24T01:37:45;98774.31;;;8.01;64.09
71948;BME280;63257;55.082;38.772;2023-03-24T01:40:21;98779.31;;;8.05;63.76
71948;BME280;63257;55.082;38.772;2023-03-24T01:42:47;98773.97;;;8.07;63.73
71948;BME280;63257;55.082;38.772;2023-03-24T01:45:43;98782.59;;;8.09;63.71
71948;BME280;63257;55.082;38.772;2023-03-24T01:48:18;98770.66;;;8.03;63.61
71948;BME280;63257;55.082;38.772;2023-03-24T01:50:53;98765.41;;;8.03;63.73
71948;BME280;63257;55.082;38.772;2023-03-24T01:53:21;98757.44;;;8.05;64.09
71948;BME280;63257;55.082;38.772;2023-03-24T01:55:48;98752.28;;;8.03;63.92
71948;BME280;63257;55.082;38.772;2023-03-24T01:58:18;98741.19;;;7.98;63.97
71948;BME280;63257;55.082;38.772;2023-03-24T02:01:06;98746.38;;;8.00;64.51
71948;BME280;63257;55.082;38.772;2023-03-24T02:03:54;98737.84;;;7.96;64.40
71948;BME280;63257;55.082;38.772;2023-03-24T02:06:22;98729.19;;;7.94;64.32
71948;BME280;63257;55.082;38.772;2023-03-24T02:08:57;98694.97;;;7.81;64.24
71948;BME280;63257;55.082;38.772;2023-03-24T02:11:28;98722.25;;;7.93;64.68
71948;BME280;63257;55.082;38.772;2023-03-24T02:13:59;98729.66;;;8.01;64.22
71948;BME280;63257;55.082;38.772;2023-03-24T02:22:40;98734.75;;;8.04;64.55
71948;BME280;63257;55.082;38.772;2023-03-24T02:48:59;98686.88;;;7.84;65.32
71948;BME280;63257;55.082;38.772;2023-03-24T02:51:57;98654.00;;;7.64;65.48
71948;BME280;63257;55.082;38.772;2023-03-24T02:57:21;98682.03;;;7.78;65.45
71948;BME280;63257;55.082;38.772;2023-03-24T03:00:38;98677.69;;;7.77;65.92
71948;BME280;63257;55.082;38.772;2023-03-24T03:05:44;98668.63;;;7.68;65.90
71948;BME280;63257;55.082;38.772;2023-03-24T03:08:16;98667.13;;;7.64;66.35
71948;BME280;63257;55.082;38.772;2023-03-24T03:10:45;98667.94;;;7.64;66.37
71948;BME280;63257;55.082;38.772;2023-03-24T03:13:29;98653.63;;;7.56;67.03
71948;BME280;63257;55.082;38.772;2023-03-24T03:16:02;98631.78;;;7.41;66.58
71948;BME280;63257;55.082;38.772;2023-03-24T03:18:39;98660.00;;;7.52;67.21
71948;BME280;63257;55.082;38.772;2023-03-24T03:21:12;98655.69;;;7.51;67.28
71948;BME280;63257;55.082;38.772;2023-03-24T03:23:45;98658.41;;;7.49;67.22
71948;BME280;63257;55.082;38.772;2023-03-24T03:26:16;98668.81;;;7.51;67.47
71948;BME280;63257;55.082;38.772;2023-03-24T03:28:50;98659.44;;;7.46;67.24
71948;BME280;63257;55.082;38.772;2023-03-24T03:31:31;98666.19;;;7.51;67.55
71948;BME280;63257;55.082;38.772;2023-03-24T03:34:08;98662.25;;;7.43;67.60
71948;BME280;63257;55.082;38.772;2023-03-24T03:36:46;98666.19;;;7.51;67.19
71948;BME280;63257;55.082;38.772;2023-03-24T03:41:46;98656.34;;;7.54;67.60
71948;BME280;63257;55.082;38.772;2023-03-24T03:44:13;98653.41;;;7.44;67.74
71948;BME280;63257;55.082;38.772;2023-03-24T03:46:39;98647.78;;;7.36;68.09
71948;BME280;63257;55.082;38.772;2023-03-24T03:49:08;98649.03;;;7.45;68.46
71948;BME280;63257;55.082;38.772;2023-03-24T03:51:34;98648.94;;;7.46;68.22
71948;BME280;63257;55.082;38.772;2023-03-24T03:54:09;98642.91;;;7.44;68.00
71948;BME280;63257;55.082;38.772;2023-03-24T03:56:38;98646.31;;;7.46;68.12
71948;BME280;63257;55.082;38.772;2023-03-24T03:59:36;98631.00;;;7.39;68.49
71948;BME280;63257;55.082;38.772;2023-03-24T04:14:14;98619.28;;;7.44;68.09
71948;BME280;63257;55.082;38.772;2023-03-24T04:20:18;98632.72;;;7.54;68.74
71948;BME280;63257;55.082;38.772;2023-03-24T04:23:04;98637.38;;;7.63;68.00
71948;BME280;63257;55.082;38.772;2023-03-24T04:33:40;98620.88;;;7.61;68.30
71948;BME280;63257;55.082;38.772;2023-03-24T04:36:20;98598.38;;;7.43;68.75
71948;BME280;63257;55.082;38.772;2023-03-24T04:39:14;98571.94;;;7.32;68.64
71948;BME280;63257;55.082;38.772;2023-03-24T04:41:48;98603.16;;;7.51;69.07
71948;BME280;63257;55.082;38.772;2023-03-24T04:44:24;98608.31;;;7.52;69.35
71948;BME280;63257;55.082;38.772;2023-03-24T04:47:10;98602.03;;;7.55;69.28
71948;BME280;63257;55.082;38.772;2023-03-24T04:49:38;98606.53;;;7.67;68.97
71948;BME280;63257;55.082;38.772;2023-03-24T04:52:06;98605.19;;;7.74;68.93
71948;BME280;63257;55.082;38.772;2023-03-24T04:54:34;98599.09;;;7.74;68.87
71948;BME280;63257;55.082;38.772;2023-03-24T04:57:04;98586.81;;;7.74;68.69
71948;BME280;63257;55.082;38.772;2023-03-24T04:59:38;98592.72;;;7.78;68.67
71948;BME280;63257;55.082;38.772;2023-03-24T05:02:05;98585.31;;;7.70;68.45
71948;BME280;63257;55.082;38.772;2023-03-24T05:04:31;98595.03;;;7.82;68.98
71948;BME280;63257;55.082;38.772;2023-03-24T05:07:09;98591.16;;;7.88;68.81
71948;BME280;63257;55.082;38.772;2023-03-24T05:09:36;98588.38;;;7.91;68.50
71948;BME280;63257;55.082;38.772;2023-03-24T05:12:02;98587.50;;;7.91;68.10
71948;BME280;63257;55.082;38.772;2023-03-24T05:14:34;98579.44;;;7.94;68.15
71948;BME280;63257;55.082;38.772;2023-03-24T05:17:00;98563.03;;;7.90;68.01
71948;BME280;63257;55.082;38.772;2023-03-24T05:19:27;98588.31;;;8.06;68.09
71948;BME280;63257;55.082;38.772;2023-03-24T05:21:53;98585.59;;;8.07;67.88
71948;BME280;63257;55.082;38.772;2023-03-24T05:24:23;98590.25;;;8.17;67.89
71948;BME280;63257;55.082;38.772;2023-03-24T05:26:48;98571.63;;;8.07;67.98
71948;BME280;63257;55.082;38.772;2023-03-24T05:29:17;98594.25;;;8.22;67.54
71948;BME280;63257;55.082;38.772;2023-03-24T05:31:43;98592.47;;;8.23;67.81
71948;BME280;63257;55.082;38.772;2023-03-24T05:34:17;98587.56;;;8.31;67.56
71948;BME280;63257;55.082;38.772;2023-03-24T05:37:00;98587.38;;;8.34;67.88
71948;BME280;63257;55.082;38.772;2023-03-24T05:39:27;98594.72;;;8.42;67.65
71948;BME280;63257;55.082;38.772;2023-03-24T05:42:00;98580.53;;;8.31;67.63
71948;BME280;63257;55.082;38.772;2023-03-24T05:44:26;98571.50;;;8.36;67.04
71948;BME280;63257;55.082;38.772;2023-03-24T05:47:03;98600.75;;;8.44;67.20
71948;BME280;63257;55.082;38.772;2023-03-24T05:49:30;98594.28;;;8.49;67.21
71948;BME280;63257;55.082;38.772;2023-03-24T05:51:57;98593.34;;;8.51;67.97
71948;BME280;63257;55.082;38.772;2023-03-24T05:54:23;98589.66;;;8.53;68.13
71948;BME280;63257;55.082;38.772;2023-03-24T05:56:53;98590.50;;;8.66;67.82
71948;BME280;63257;55.082;38.772;2023-03-24T05:59:37;98559.16;;;8.51;67.82
71948;BME280;63257;55.082;38.772;2023-03-24T06:02:16;98591.59;;;8.77;67.77
71948;BME280;63257;55.082;38.772;2023-03-24T06:04:57;98590.97;;;8.86;67.84
71948;BME280;63257;55.082;38.772;2023-03-24T06:07:24;98591.38;;;8.93;68.32
71948;BME280;63257;55.082;38.772;2023-03-24T06:09:52;98583.81;;;8.75;68.42
71948;BME280;63257;55.082;38.772;2023-03-24T06:12:23;98584.63;;;8.89;68.96
71948;BME280;63257;55.082;38.772;2023-03-24T06:15:01;98585.78;;;8.85;69.68
71948;BME280;63257;55.082;38.772;2023-03-24T06:17:29;98582.97;;;8.88;69.99
71948;BME280;63257;55.082;38.772;2023-03-24T06:19:57;98586.53;;;8.87;70.15
71948;BME280;63257;55.082;38.772;2023-03-24T06:22:44;98585.16;;;8.81;70.26
71948;BME280;63257;55.082;38.772;2023-03-24T06:25:15;98565.88;;;8.80;70.57
71948;BME280;63257;55.082;38.772;2023-03-24T06:27:48;98570.75;;;8.74;70.60
71948;BME280;63257;55.082;38.772;2023-03-24T06:30:19;98580.13;;;8.78;71.01
71948;BME280;63257;55.082;38.772;2023-03-24T06:32:46;98584.75;;;8.74;71.45
71948;BME280;63257;55.082;38.772;2023-03-24T06:35:13;98583.03;;;8.73;72.21
71948;BME280;63257;55.082;38.772;2023-03-24T06:38:02;98576.84;;;8.74;72.23
71948;BME280;63257;55.082;38.772;2023-03-24T06:40:29;98582.94;;;8.75;73.18
71948;BME280;63257;55.082;38.772;2023-03-24T06:42:58;98580.63;;;8.70;73.48
71948;BME280;63257;55.082;38.772;2023-03-24T06:45:24;98574.53;;;8.70;74.23
71948;BME280;63257;55.082;38.772;2023-03-24T06:47:52;98567.38;;;8.59;74.49
71948;BME280;63257;55.082;38.772;2023-03-24T06:50:21;98569.78;;;8.62;74.89
71948;BME280;63257;55.082;38.772;2023-03-24T06:52:47;98553.69;;;8.54;75.40
71948;BME280;63257;55.082;38.772;2023-03-24T06:55:18;98567.16;;;8.62;75.81
71948;BME280;63257;55.082;38.772;2023-03-24T06:57:44;98570.72;;;8.61;75.66
71948;BME280;63257;55.082;38.772;2023-03-24T07:00:43;98568.09;;;8.48;76.03
71948;BME280;63257;55.082;38.772;2023-03-24T07:03:23;98575.88;;;8.49;76.70
71948;BME280;63257;55.082;38.772;2023-03-24T07:06:17;98589.72;;;8.52;77.18
71948;BME280;63257;55.082;38.772;2023-03-24T07:08:49;98571.88;;;8.57;77.40
71948;BME280;63257;55.082;38.772;2023-03-24T07:11:15;98567.53;;;8.56;77.52
71948;BME280;63257;55.082;38.772;2023-03-24T07:13:48;98581.03;;;8.64;77.48
71948;BME280;63257;55.082;38.772;2023-03-24T07:16:15;98587.16;;;8.64;77.50
71948;BME280;63257;55.082;38.772;2023-03-24T07:18:41;98569.44;;;8.54;78.02
71948;BME280;63257;55.082;38.772;2023-03-24T07:21:07;98583.47;;;8.67;78.47
71948;BME280;63257;55.082;38.772;2023-03-24T07:23:35;98578.09;;;8.69;77.93
71948;BME280;63257;55.082;38.772;2023-03-24T07:26:09;98575.25;;;8.72;77.83
71948;BME280;63257;55.082;38.772;2023-03-24T07:28:48;98582.31;;;8.71;78.42
71948;BME280;63257;55.082;38.772;2023-03-24T07:31:41;98583.47;;;8.67;78.63
71948;BME280;63257;55.082;38.772;2023-03-24T07:34:09;98565.25;;;8.64;78.78
71948;BME280;63257;55.082;38.772;2023-03-24T07:36:38;98554.50;;;8.54;78.96
71948;BME280;63257;55.082;38.772;2023-03-24T07:39:13;98554.94;;;8.61;79.47
71948;BME280;63257;55.082;38.772;2023-03-24T07:41:47;98576.63;;;8.64;80.14
71948;BME280;63257;55.082;38.772;2023-03-24T07:44:24;98527.72;;;8.35;80.23
71948;BME280;63257;55.082;38.772;2023-03-24T07:46:52;98563.91;;;8.71;80.18
71948;BME280;63257;55.082;38.772;2023-03-24T07:49:18;98558.44;;;8.74;80.18
71948;BME280;63257;55.082;38.772;2023-03-24T07:52:14;98567.38;;;8.72;80.52
71948;BME280;63257;55.082;38.772;2023-03-24T07:54:43;98571.16;;;8.68;80.67
71948;BME280;63257;55.082;38.772;2023-03-24T07:57:15;98563.16;;;8.69;80.58
71948;BME280;63257;55.082;38.772;2023-03-24T07:59:41;98560.84;;;8.77;80.82
71948;BME280;63257;55.082;38.772;2023-03-24T08:02:19;98550.44;;;8.76;80.98
71948;BME280;63257;55.082;38.772;2023-03-24T08:04:57;98543.81;;;8.70;81.03
71948;BME280;63257;55.082;38.772;2023-03-24T08:11:14;98564.97;;;8.69;81.55
71948;BME280;63257;55.082;38.772;2023-03-24T08:13:41;98566.72;;;8.55;81.81
71948;BME280;63257;55.082;38.772;2023-03-24T08:16:07;98553.41;;;8.44;82.25
71948;BME280;63257;55.082;38.772;2023-03-24T08:18:33;98570.19;;;8.56;82.18
71948;BME280;63257;55.082;38.772;2023-03-24T08:21:03;98553.41;;;8.44;82.51
71948;BME280;63257;55.082;38.772;2023-03-24T08:23:30;98567.47;;;8.57;82.88
71948;BME280;63257;55.082;38.772;2023-03-24T08:26:06;98564.72;;;8.59;82.12
71948;BME280;63257;55.082;38.772;2023-03-24T08:28:45;98567.16;;;8.62;82.36
71948;BME280;63257;55.082;38.772;2023-03-24T08:31:12;98526.78;;;8.36;82.32
71948;BME280;63257;55.082;38.772;2023-03-24T08:33:38;98517.31;;;8.33;82.18
71948;BME280;63257;55.082;38.772;2023-03-24T08:36:05;98496.88;;;8.11;82.35
71948;BME280;63257;55.082;38.772;2023-03-24T08:38:31;98560.56;;;8.42;82.54
71948;BME280;63257;55.082;38.772;2023-03-24T08:41:01;98495.69;;;8.02;83.42
71948;BME280;63257;55.082;38.772;2023-03-24T08:43:33;98525.38;;;8.17;83.58
71948;BME280;63257;55.082;38.772;2023-03-24T08:49:20;98512.69;;;7.96;83.90
71948;BME280;63257;55.082;38.772;2023-03-24T08:51:49;98531.34;;;8.06;83.67
71948;BME280;63257;55.082;38.772;2023-03-24T08:54:15;98491.25;;;7.90;83.80
71948;BME280;63257;55.082;38.772;2023-03-24T08:56:44;98541.78;;;8.21;83.90
71948;BME280;63257;55.082;38.772;2023-03-24T08:59:10;98528.97;;;8.16;83.53
71948;BME280;63257;55.082;38.772;2023-03-24T09:01:36;98518.00;;;8.09;83.33
71948;BME280;63257;55.082;38.772;2023-03-24T09:04:02;98522.34;;;8.23;84.05
71948;BME280;63257;55.082;38.772;2023-03-24T09:06:28;98522.47;;;8.22;83.39
71948;BME280;63257;55.082;38.772;2023-03-24T09:09:20;98565.03;;;8.54;82.97
71948;BME280;63257;55.082;38.772;2023-03-24T09:11:47;98519.94;;;8.20;83.21
71948;BME280;63257;55.082;38.772;2023-03-24T09:14:21;98575.66;;;8.53;83.12
71948;BME280;63257;55.082;38.772;2023-03-24T09:16:54;98537.09;;;8.26;83.31
71948;BME280;63257;55.082;38.772;2023-03-24T09:19:35;98552.88;;;8.39;83.33
71948;BME280;63257;55.082;38.772;2023-03-24T09:22:24;98575.75;;;8.51;83.27
71948;BME280;63257;55.082;38.772;2023-03-24T09:24:51;98569.03;;;8.60;83.03
71948;BME280;63257;55.082;38.772;2023-03-24T09:27:17;98550.25;;;8.39;83.22
71948;BME280;63257;55.082;38.772;2023-03-24T09:29:43;98516.25;;;8.23;83.17
71948;BME280;63257;55.082;38.772;2023-03-24T09:32:09;98567.97;;;8.49;83.20
71948;BME280;63257;55.082;38.772;2023-03-24T09:34:36;98567.22;;;8.47;83.00
71948;BME280;63257;55.082;38.772;2023-03-24T09:37:05;98513.44;;;8.26;83.13
71948;BME280;63257;55.082;38.772;2023-03-24T09:39:34;98537.94;;;8.39;82.92
71948;BME280;63257;55.082;38.772;2023-03-24T09:42:04;98522.81;;;8.43;82.78
71948;BME280;63257;55.082;38.772;2023-03-24T09:44:34;98514.13;;;8.55;81.67
71948;BME280;63257;55.082;38.772;2023-03-24T09:47:19;98557.47;;;9.01;81.04
71948;BME280;63257;55.082;38.772;2023-03-24T09:49:59;98523.19;;;9.03;80.12
71948;BME280;63257;55.082;38.772;2023-03-24T09:52:39;98539.13;;;9.25;79.69
71948;BME280;63257;55.082;38.772;2023-03-24T09:55:12;98558.59;;;9.48;79.29
71948;BME280;63257;55.082;38.772;2023-03-24T09:57:47;98552.34;;;9.62;78.75
71948;BME280;63257;55.082;38.772;2023-03-24T10:00:27;98532.88;;;9.52;78.30
71948;BME280;63257;55.082;38.772;2023-03-24T10:02:58;98540.34;;;9.58;78.15
71948;BME280;63257;55.082;38.772;2023-03-24T10:05:45;98562.91;;;9.87;78.01
71948;BME280;63257;55.082;38.772;2023-03-24T10:08:23;98519.13;;;9.73;77.14
71948;BME280;63257;55.082;38.772;2023-03-24T10:16:56;98545.09;;;10.50;75.74
71948;BME280;63257;55.082;38.772;2023-03-24T10:19:43;98552.09;;;10.62;73.87
71948;BME280;63257;55.082;38.772;2023-03-24T10:27:33;98551.22;;;10.50;73.21
71948;BME280;63257;55.082;38.772;2023-03-24T10:30:17;98557.88;;;10.67;73.46
71948;BME280;63257;55.082;38.772;2023-03-24T10:32:45;98567.63;;;10.43;73.72
71948;BME280;63257;55.082;38.772;2023-03-24T10:35:21;98559.22;;;10.25;74.03
71948;BME280;63257;55.082;38.772;2023-03-24T10:37:51;98567.16;;;10.00;74.70
71948;BME280;63257;55.082;38.772;2023-03-24T10:40:18;98580.50;;;9.86;75.32
71948;BME280;63257;55.082;38.772;2023-03-24T10:42:50;98539.41;;;9.46;75.67
71948;BME280;63257;55.082;38.772;2023-03-24T10:45:28;98554.44;;;9.57;75.96
71948;BME280;63257;55.082;38.772;2023-03-24T10:48:02;98527.44;;;9.29;75.47
71948;BME280;63257;55.082;38.772;2023-03-24T10:50:31;98525.44;;;9.20;75.88
71948;BME280;63257;55.082;38.772;2023-03-24T10:52:58;98595.69;;;9.32;76.25
71948;BME280;63257;55.082;38.772;2023-03-24T10:55:35;98520.84;;;9.11;76.34
71948;BME280;63257;55.082;38.772;2023-03-24T10:58:18;98601.78;;;9.46;76.03
71948;BME280;63257;55.082;38.772;2023-03-24T11:00:47;98576.84;;;9.39;76.23
71948;BME280;63257;55.082;38.772;2023-03-24T11:03:26;98558.97;;;9.18;76.35
71948;BME280;63257;55.082;38.772;2023-03-24T11:06:16;98549.06;;;8.96;76.85
71948;BME280;63257;55.082;38.772;2023-03-24T11:09:17;98600.97;;;9.20;77.02
71948;BME280;63257;55.082;38.772;2023-03-24T11:11:43;98576.53;;;9.05;77.99
71948;BME280;63257;55.082;38.772;2023-03-24T11:14:23;98608.13;;;9.17;77.79
71948;BME280;63257;55.082;38.772;2023-03-24T11:16:51;98610.13;;;9.27;77.39
71948;BME280;63257;55.082;38.772;2023-03-24T11:19:20;98550.03;;;8.82;77.35
71948;BME280;63257;55.082;38.772;2023-03-24T11:21:47;98574.00;;;9.29;77.09
71948;BME280;63257;55.082;38.772;2023-03-24T11:24:16;98609.16;;;9.41;76.83
71948;BME280;63257;55.082;38.772;2023-03-24T11:26:49;98585.38;;;9.29;76.42
71948;BME280;63257;55.082;38.772;2023-03-24T11:29:20;98623.06;;;9.43;76.35
71948;BME280;63257;55.082;38.772;2023-03-24T11:31:54;98624.53;;;9.47;76.13
71948;BME280;63257;55.082;38.772;2023-03-24T11:34:24;98610.72;;;9.43;75.83
71948;BME280;63257;55.082;38.772;2023-03-24T11:39:39;98613.06;;;9.48;76.00
71948;BME280;63257;55.082;38.772;2023-03-24T11:47:58;98629.81;;;9.47;76.43
71948;BME280;63257;55.082;38.772;2023-03-24T11:50:29;98611.28;;;9.36;77.16
71948;BME280;63257;55.082;38.772;2023-03-24T11:53:06;98624.75;;;9.44;76.50
71948;BME280;63257;55.082;38.772;2023-03-24T11:58:32;98604.09;;;9.38;76.92
71948;BME280;63257;55.082;38.772;2023-03-24T12:01:06;98641.81;;;9.51;77.46
71948;BME280;63257;55.082;38.772;2023-03-24T12:06:12;98655.63;;;9.29;79.39
71948;BME280;63257;55.082;38.772;2023-03-24T12:13:09;98659.81;;;9.06;80.77
71948;BME280;63257;55.082;38.772;2023-03-24T12:15:56;98656.22;;;8.94;81.37
71948;BME280;63257;55.082;38.772;2023-03-24T12:26:43;98663.59;;;9.02;80.21
71948;BME280;63257;55.082;38.772;2023-03-24T12:45:57;98683.31;;;9.22;78.22
71948;BME280;63257;55.082;38.772;2023-03-24T12:52:11;98694.38;;;9.78;75.70
71948;BME280;63257;55.082;38.772;2023-03-24T12:57:15;98700.47;;;9.53;76.28
71948;BME280;63257;55.082;38.772;2023-03-24T13:02:24;98706.50;;;9.29;77.56
71948;BME280;63257;55.082;38.772;2023-03-24T13:04:54;98722.78;;;9.22;77.79
71948;BME280;63257;55.082;38.772;2023-03-24T13:07:24;98701.31;;;9.15;77.60
71948;BME280;63257;55.082;38.772;2023-03-24T13:12:40;98714.16;;;9.07;77.54
71948;BME280;63257;55.082;38.772;2023-03-24T13:17:49;98721.94;;;9.98;73.52
71948;BME280;63257;55.082;38.772;2023-03-24T13:20:28;98709.66;;;10.23;71.38
71948;BME280;63257;55.082;38.772;2023-03-24T13:23:01;98734.41;;;9.83;72.91
71948;BME280;63257;55.082;38.772;2023-03-24T13:32:05;98704.28;;;8.83;76.63
71948;BME280;63257;55.082;38.772;2023-03-24T13:35:04;98748.38;;;9.07;76.81
71948;BME280;63257;55.082;38.772;2023-03-24T13:38:19;98737.25;;;8.89;77.39
71948;BME280;63257;55.082;38.772;2023-03-24T13:40:50;98699.25;;;8.53;78.14
71948;BME280;63257;55.082;38.772;2023-03-24T13:43:20;98727.50;;;8.63;78.90
71948;BME280;63257;55.082;38.772;2023-03-24T13:49:10;98751.50;;;8.72;80.00
71948;BME280;63257;55.082;38.772;2023-03-24T13:51:43;98687.06;;;8.37;80.76
71948;BME280;63257;55.082;38.772;2023-03-24T14:06:00;98743.31;;;8.76;80.64
71948;BME280;63257;55.082;38.772;2023-03-24T14:27:40;98748.75;;;10.55;69.21
71948;BME280;63257;55.082;38.772;2023-03-24T14:30:23;98758.75;;;9.87;72.29
71948;BME280;63257;55.082;38.772;2023-03-24T14:33:00;98751.69;;;9.23;74.66
71948;BME280;63257;55.082;38.772;2023-03-24T14:35:56;98753.38;;;8.97;75.73
71948;BME280;63257;55.082;38.772;2023-03-24T14:38:35;98726.44;;;8.66;76.36
71948;BME280;63257;55.082;38.772;2023-03-24T14:41:13;98711.00;;;8.47;76.02
71948;BME280;63257;55.082;38.772;2023-03-24T14:48:57;98756.13;;;8.68;75.36
71948;BME280;63257;55.082;38.772;2023-03-24T14:58:29;98725.75;;;8.35;74.21
71948;BME280;63257;55.082;38.772;2023-03-24T15:00:58;98703.94;;;8.20;74.41
71948;BME280;63257;55.082;38.772;2023-03-24T15:04:04;98764.78;;;8.56;74.42
71948;BME280;63257;55.082;38.772;2023-03-24T15:06:31;98780.50;;;8.57;75.08
71948;BME280;63257;55.082;38.772;2023-03-24T15:09:22;98774.19;;;8.60;74.47
71948;BME280;63257;55.082;38.772;2023-03-24T15:11:48;98771.84;;;8.55;74.81
71948;BME280;63257;55.082;38.772;2023-03-24T15:14:23;98775.78;;;8.62;74.96
71948;BME280;63257;55.082;38.772;2023-03-24T15:17:35;98762.88;;;8.45;74.60
71948;BME280;63257;55.082;38.772;2023-03-24T15:19:42;98766.50;;;8.42;74.96
71948;BME280;63257;55.082;38.772;2023-03-24T15:22:11;98770.75;;;8.30;75.58
71948;BME280;63257;55.082;38.772;2023-03-24T15:29:04;98786.16;;;8.22;77.03
71948;BME280;63257;55.082;38.772;2023-03-24T15:31:31;98804.72;;;8.33;77.32
71948;BME280;63257;55.082;38.772;2023-03-24T15:34:03;98812.81;;;8.30;77.06
71948;BME280;63257;55.082;38.772;2023-03-24T15:36:39;98778.44;;;8.05;77.84
71948;BME280;63257;55.082;38.772;2023-03-24T15:39:16;98771.63;;;7.88;78.19
71948;BME280;63257;55.082;38.772;2023-03-24T15:46:01;98817.72;;;8.08;78.84
71948;BME280;63257;55.082;38.772;2023-03-24T15:52:58;98833.16;;;7.98;79.83
71948;BME280;63257;55.082;38.772;2023-03-24T15:55:35;98822.66;;;7.84;79.67
71948;BME280;63257;55.082;38.772;2023-03-24T15:58:26;98837.75;;;7.80;80.17
71948;BME280;63257;55.082;38.772;2023-03-24T16:00:56;98840.47;;;7.78;80.49
71948;BME280;63257;55.082;38.772;2023-03-24T16:03:24;98852.66;;;7.79;80.54
71948;BME280;63257;55.082;38.772;2023-03-24T16:05:55;98849.56;;;7.73;80.55
71948;BME280;63257;55.082;38.772;2023-03-24T16:11:12;98863.50;;;7.59;81.93
71948;BME280;63257;55.082;38.772;2023-03-24T16:13:40;98788.41;;;7.10;82.31
71948;BME280;63257;55.082;38.772;2023-03-24T16:18:41;98829.41;;;7.43;81.93
71948;BME280;63257;55.082;38.772;2023-03-24T16:21:25;98857.63;;;7.70;81.73
71948;BME280;63257;55.082;38.772;2023-03-24T16:23:54;98816.94;;;7.46;81.10
71948;BME280;63257;55.082;38.772;2023-03-24T16:26:24;98818.94;;;7.57;80.91
71948;BME280;63257;55.082;38.772;2023-03-24T16:33:25;98792.31;;;7.49;80.21
71948;BME280;63257;55.082;38.772;2023-03-24T16:36:10;98860.25;;;7.84;80.35
71948;BME280;63257;55.082;38.772;2023-03-24T16:38:38;98820.56;;;7.60;80.08
71948;BME280;63257;55.082;38.772;2023-03-24T16:41:04;98812.19;;;7.53;80.14
71948;BME280;63257;55.082;38.772;2023-03-24T16:43:30;98882.53;;;7.93;79.54
71948;BME280;63257;55.082;38.772;2023-03-24T16:46:29;98881.41;;;7.97;79.90
71948;BME280;63257;55.082;38.772;2023-03-24T16:48:56;98848.53;;;7.75;79.77
71948;BME280;63257;55.082;38.772;2023-03-24T16:51:22;98870.63;;;7.87;79.47
71948;BME280;63257;55.082;38.772;2023-03-24T16:54:13;98891.94;;;7.97;79.81
71948;BME280;63257;55.082;38.772;2023-03-24T16:56:43;98825.56;;;7.48;80.04
71948;BME280;63257;55.082;38.772;2023-03-24T16:59:11;98865.03;;;7.77;79.30
71948;BME280;63257;55.082;38.772;2023-03-24T17:13:44;98910.22;;;7.98;78.87
71948;BME280;63257;55.082;38.772;2023-03-24T17:16:16;98902.53;;;7.95;79.05